Time;durP1;ratioP1;P1;durP2;ratioP2;P2;SDS_P1;SDS_P2;PMS_P1;PMS_P2;Temp;Humidity;BMP_temperature;BMP_pressure;BME280_temperature;BME280_humidity;BME280_pressure;Samples;Min_cycle;Max_cycle;Signal;HPM_P1;HPM_P2
2021/01/28 00:03:07;;;;;;;59.23;18.17;;;6.50;99.90;;;;;;4946563;28;20627;-63
2021/01/28 00:18:35;;;;;;;55.33;17.30;;;6.50;99.90;;;;;;4878339;29;20227;-63
2021/01/28 00:22:09;;;;;;;58.67;17.90;;;6.50;99.90;;;;;;4900090;29;20222;-63
2021/01/28 00:33:59;;;;;;;55.80;17.77;;;6.50;99.90;;;;;;5010052;28;20717;-63
2021/01/28 00:37:46;;;;;;;50.20;17.67;;;6.50;99.90;;;;;;4972683;28;20771;-63
2021/01/28 00:40:46;;;;;;;54.07;17.53;;;6.50;99.90;;;;;;4951179;29;20251;-63
2021/01/28 00:43:53;;;;;;;43.93;17.07;;;6.50;99.90;;;;;;4951959;28;20271;-63
2021/01/28 00:46:25;;;;;;;47.27;16.90;;;6.50;99.90;;;;;;5009526;28;20611;-63
2021/01/28 00:53:29;;;;;;;45.90;16.97;;;6.50;99.90;;;;;;5003020;28;20371;-63
2021/01/28 01:09:48;;;;;;;41.43;16.00;;;6.50;99.90;;;;;;4911188;29;20592;-63
2021/01/28 01:32:55;;;;;;;43.07;16.00;;;6.50;99.90;;;;;;4933381;29;20220;-62
2021/01/28 01:35:41;;;;;;;41.87;15.90;;;6.50;99.90;;;;;;4858950;29;20743;-62
2021/01/28 01:51:37;;;;;;;43.70;16.67;;;6.50;99.90;;;;;;4894458;29;20221;-63
2021/01/28 01:54:45;;;;;;;46.70;16.40;;;6.50;99.90;;;;;;4863254;29;20230;-62
2021/01/28 01:58:08;;;;;;;43.80;15.50;;;6.40;99.90;;;;;;4880611;29;20229;-63
2021/01/28 02:01:26;;;;;;;40.07;15.67;;;6.40;99.90;;;;;;5001458;28;20265;-62
2021/01/28 02:07:27;;;;;;;46.37;16.53;;;6.40;99.90;;;;;;4933279;29;20228;-62
2021/01/28 02:10:54;;;;;;;42.40;16.97;;;6.40;99.90;;;;;;4943104;28;20228;-63
2021/01/28 02:14:35;;;;;;;45.33;16.23;;;6.40;99.90;;;;;;4902009;29;20229;-62
2021/01/28 02:21:43;;;;;;;50.47;17.17;;;6.50;99.90;;;;;;4934912;29;20232;-62
2021/01/28 02:42:29;;;;;;;40.17;14.90;;;6.50;99.90;;;;;;4885675;29;20221;-62
2021/01/28 02:46:34;;;;;;;;;;;;;;;;;;;;;
2021/01/28 02:50:30;;;;;;;36.83;14.73;;;6.50;99.90;;;;;;4929660;28;20256;-62
2021/01/28 03:05:11;;;;;;;37.60;15.37;;;6.50;99.90;;;;;;4895676;29;20230;-62
2021/01/28 03:11:57;;;;;;;38.87;15.53;;;6.40;99.90;;;;;;4880062;29;20253;-62
2021/01/28 03:18:59;;;;;;;37.77;14.17;;;6.50;99.90;;;;;;4898436;29;20232;-62
2021/01/28 03:25:15;;;;;;;37.33;14.80;;;6.50;99.90;;;;;;4974377;28;20317;-63
2021/01/28 03:36:47;;;;;;;;;;;;;;;;;;;;;
2021/01/28 03:39:36;;;;;;;35.67;14.17;;;6.50;99.90;;;;;;5040853;28;20225;-62
2021/01/28 03:42:33;;;;;;;38.83;14.67;;;6.50;99.90;;;;;;5042265;28;20314;-62
2021/01/28 03:45:46;;;;;;;33.83;14.30;;;6.50;99.90;;;;;;5024089;28;20251;-62
2021/01/28 03:56:13;;;;;;;40.10;14.60;;;6.50;99.90;;;;;;5045322;28;20243;-62
2021/01/28 03:59:58;;;;;;;38.83;14.20;;;6.50;99.90;;;;;;5003905;28;20817;-62
2021/01/28 04:09:59;;;;;;;39.27;14.37;;;6.50;99.90;;;;;;5097214;28;20218;-62
2021/01/28 04:12:35;;;;;;;38.37;14.67;;;6.50;99.90;;;;;;5093621;28;20218;-62
2021/01/28 04:19:40;;;;;;;31.40;13.73;;;6.50;99.90;;;;;;5012892;28;20724;-62
2021/01/28 04:22:31;;;;;;;33.20;13.00;;;6.60;99.90;;;;;;5028748;28;20314;-62
2021/01/28 04:37:48;;;;;;;36.50;13.63;;;6.60;99.90;;;;;;5072204;28;20285;-62
2021/01/28 04:45:24;;;;;;;30.07;12.67;;;6.60;99.90;;;;;;4964579;28;20246;-62
2021/01/28 04:48:23;;;;;;;27.03;13.07;;;6.60;99.90;;;;;;5000142;28;20237;-62
2021/01/28 04:50:58;;;;;;;32.53;14.07;;;6.60;99.90;;;;;;4964818;28;20799;-62
2021/01/28 05:04:45;;;;;;;25.20;12.43;;;6.70;99.90;;;;;;5028580;28;20264;-62
2021/01/28 05:08:26;;;;;;;31.03;13.57;;;6.70;99.90;;;;;;4940598;28;20247;-62
2021/01/28 05:25:45;;;;;;;29.60;12.70;;;6.70;99.90;;;;;;4972191;28;20792;-62
2021/01/28 05:33:09;;;;;;;31.50;12.77;;;6.80;99.90;;;;;;4995222;28;20600;-62
2021/01/28 05:36:38;;;;;;;28.50;12.80;;;6.80;99.90;;;;;;4932181;29;20233;-62
2021/01/28 05:47:16;;;;;;;34.57;12.97;;;6.90;99.90;;;;;;4932112;28;20312;-62
2021/01/28 05:53:57;;;;;;;24.50;12.37;;;7.00;99.90;;;;;;5056588;28;20363;-62
2021/01/28 05:57:11;;;;;;;26.37;11.47;;;7.00;99.90;;;;;;5054650;28;20795;-62
2021/01/28 06:00:57;;;;;;;20.30;10.83;;;7.00;99.90;;;;;;4994422;28;20229;-62
2021/01/28 06:05:15;;;;;;;20.90;10.70;;;7.10;99.90;;;;;;5073073;28;20266;-62
2021/01/28 06:08:33;;;;;;;21.33;11.10;;;7.20;99.90;;;;;;5079036;28;20215;-62
2021/01/28 06:12:04;;;;;;;20.47;10.90;;;7.10;99.90;;;;;;5069368;28;20737;-62
2021/01/28 06:15:48;;;;;;;21.73;10.90;;;7.20;99.90;;;;;;5038837;28;20220;-62
2021/01/28 06:19:47;;;;;;;19.20;11.00;;;7.20;99.90;;;;;;5007692;28;20583;-62
2021/01/28 06:28:18;;;;;;;20.50;11.00;;;7.20;99.90;;;;;;4934924;28;20230;-62
2021/01/28 06:32:16;;;;;;;23.43;11.43;;;7.30;99.90;;;;;;4950868;28;20646;-62
2021/01/28 06:35:57;;;;;;;21.80;11.17;;;7.40;99.90;;;;;;4957544;28;20234;-62
2021/01/28 06:39:24;;;;;;;21.33;10.97;;;7.40;99.90;;;;;;4898550;29;20333;-62
2021/01/28 06:42:17;;;;;;;21.60;10.97;;;7.50;99.90;;;;;;4894002;29;20239;-62
2021/01/28 06:45:09;;;;;;;20.37;10.73;;;7.50;99.90;;;;;;4958264;28;20652;-62
2021/01/28 06:48:08;;;;;;;19.07;10.70;;;7.50;99.90;;;;;;4991519;28;20207;-61
2021/01/28 06:51:44;;;;;;;19.73;10.57;;;7.60;99.90;;;;;;5006118;28;20217;-62
2021/01/28 06:55:00;;;;;;;18.27;10.57;;;7.60;99.90;;;;;;4903302;29;20261;-61
2021/01/28 07:01:55;;;;;;;14.23;9.37;;;7.70;99.90;;;;;;4837783;29;20297;-62
2021/01/28 07:09:50;;;;;;;20.73;10.33;;;7.80;99.90;;;;;;4835397;29;20216;-62
2021/01/28 07:12:46;;;;;;;16.03;9.43;;;7.80;99.90;;;;;;4848867;29;20228;-61
2021/01/28 07:16:12;;;;;;;18.00;9.50;;;7.90;99.90;;;;;;4889828;29;20235;-61
2021/01/28 07:19:55;;;;;;;14.53;9.07;;;7.90;99.90;;;;;;4896696;29;20233;-62
2021/01/28 07:22:46;;;;;;;15.67;9.70;;;8.00;99.90;;;;;;4824265;29;20257;-61
2021/01/28 07:26:59;;;;;;;16.50;9.57;;;8.00;99.90;;;;;;4879742;29;20220;-62
2021/01/28 07:34:46;;;;;;;19.43;10.37;;;8.10;99.90;;;;;;4916026;29;20344;-62
2021/01/28 07:42:50;;;;;;;13.90;9.47;;;8.30;99.90;;;;;;4973073;28;20223;-62
2021/01/28 07:46:07;;;;;;;16.60;9.50;;;8.30;99.90;;;;;;4951235;28;20323;-62
2021/01/28 07:57:54;;;;;;;18.67;9.97;;;8.40;99.90;;;;;;4931648;29;20721;-62
2021/01/28 08:00:29;;;;;;;16.70;9.60;;;8.50;99.90;;;;;;4936653;29;20334;-62
2021/01/28 08:04:01;;;;;;;17.43;9.57;;;8.50;99.90;;;;;;4921052;29;20236;-62
2021/01/28 08:07:21;;;;;;;17.23;9.37;;;8.50;99.90;;;;;;4977384;28;20219;-62
2021/01/28 08:10:12;;;;;;;11.20;7.93;;;8.60;99.90;;;;;;5012816;28;20662;-62
2021/01/28 08:13:17;;;;;;;11.73;7.40;;;8.70;99.90;;;;;;5032427;28;20695;-62
2021/01/28 08:16:39;;;;;;;12.07;7.03;;;8.80;99.90;;;;;;4914043;29;20244;-62
2021/01/28 08:19:57;;;;;;;8.53;6.20;;;8.90;99.90;;;;;;4918367;29;20708;-62
2021/01/28 08:23:14;;;;;;;10.63;6.67;;;9.10;99.90;;;;;;4927681;29;20251;-62
2021/01/28 08:25:53;;;;;;;7.80;6.53;;;9.10;99.90;;;;;;4950989;28;20222;-62
2021/01/28 08:28:21;;;;;;;11.23;6.80;;;9.20;99.90;;;;;;4990331;28;20250;-62
2021/01/28 08:31:27;;;;;;;11.50;7.17;;;9.30;99.90;;;;;;4990847;28;20231;-62
2021/01/28 08:37:27;;;;;;;15.30;8.33;;;9.40;99.90;;;;;;5018674;28;20276;-62
2021/01/28 08:39:56;;;;;;;13.03;8.33;;;9.40;99.90;;;;;;4980272;28;20731;-62
2021/01/28 08:43:06;;;;;;;12.90;9.07;;;9.40;99.90;;;;;;5040157;28;20274;-62
2021/01/28 08:46:27;;;;;;;13.90;9.20;;;9.50;99.90;;;;;;5011754;28;20232;-62
2021/01/28 08:52:25;;;;;;;13.87;9.57;;;9.60;99.90;;;;;;4945355;28;20322;-62
2021/01/28 08:55:39;;;;;;;17.80;10.03;;;9.50;99.90;;;;;;4908846;29;20232;-62
2021/01/28 09:02:10;;;;;;;17.30;9.77;;;9.60;99.90;;;;;;4903785;29;20711;-62
2021/01/28 09:05:37;;;;;;;14.60;9.80;;;9.60;99.90;;;;;;5011179;28;20258;-62
2021/01/28 09:08:41;;;;;;;15.53;10.23;;;9.70;99.90;;;;;;4992511;28;20275;-62
2021/01/28 09:12:00;;;;;;;16.60;10.80;;;9.70;99.90;;;;;;5047441;28;20216;-62
2021/01/28 09:21:06;;;;;;;15.33;9.23;;;9.80;99.90;;;;;;5084175;28;20223;-62
2021/01/28 09:24:13;;;;;;;12.43;8.50;;;9.80;99.90;;;;;;5007174;28;20239;-61
2021/01/28 09:27:33;;;;;;;12.10;8.50;;;9.80;99.90;;;;;;5069976;28;20231;-61
2021/01/28 09:33:45;;;;;;;10.70;6.63;;;9.90;99.90;;;;;;5061298;28;20223;-61
2021/01/28 09:37:23;;;;;;;10.60;6.53;;;10.00;99.90;;;;;;4995170;28;20306;-61
2021/01/28 09:40:33;;;;;;;7.43;6.47;;;10.00;99.90;;;;;;5061134;28;20238;-61
2021/01/28 09:43:26;;;;;;;6.87;6.03;;;10.00;99.90;;;;;;5070654;28;20216;-61
2021/01/28 09:46:29;;;;;;;9.70;6.23;;;10.10;99.90;;;;;;5053459;28;20212;-61
2021/01/28 09:49:21;;;;;;;6.97;5.93;;;10.10;99.90;;;;;;5069318;28;20363;-61
2021/01/28 09:52:49;;;;;;;6.43;5.83;;;10.10;99.90;;;;;;5039958;28;20220;-61
2021/01/28 09:55:36;;;;;;;10.10;6.47;;;10.20;99.90;;;;;;5019265;28;20234;-60
2021/01/28 09:58:05;;;;;;;9.20;5.30;;;10.20;99.90;;;;;;5048095;28;20741;-61
2021/01/28 10:00:40;;;;;;;10.90;6.20;;;10.30;99.90;;;;;;5054521;28;20224;-61
2021/01/28 10:03:08;;;;;;;13.10;6.10;;;10.20;99.90;;;;;;5083964;28;20219;-61
2021/01/28 10:05:42;;;;;;;11.33;7.23;;;10.30;99.90;;;;;;5085562;28;20211;-61
2021/01/28 10:11:09;;;;;;;19.40;9.03;;;10.20;99.90;;;;;;5092641;28;20260;-61
2021/01/28 10:14:01;;;;;;;18.17;8.30;;;10.30;99.90;;;;;;5097829;28;20210;-61
2021/01/28 10:16:44;;;;;;;16.90;9.27;;;10.30;99.90;;;;;;5107729;28;20222;-61
2021/01/28 10:19:21;;;;;;;16.37;8.17;;;10.40;99.90;;;;;;5092920;28;20217;-61
2021/01/28 10:22:08;;;;;;;22.50;9.57;;;10.40;99.90;;;;;;5104817;28;20218;-60
2021/01/28 10:28:41;;;;;;;22.33;10.50;;;10.40;99.90;;;;;;5072435;28;20707;-61
2021/01/28 10:31:41;;;;;;;21.50;10.90;;;10.50;99.90;;;;;;5053307;28;20313;-61
2021/01/28 10:34:30;;;;;;;20.03;11.03;;;10.50;99.90;;;;;;5071440;28;20220;-61
2021/01/28 10:45:54;;;;;;;17.03;9.60;;;10.70;99.90;;;;;;5031501;28;20234;-62
2021/01/28 10:48:38;;;;;;;14.57;9.00;;;10.70;99.90;;;;;;5072589;28;20267;-61
2021/01/28 10:51:22;;;;;;;16.33;9.00;;;10.70;99.90;;;;;;5072790;28;20807;-61
2021/01/28 10:54:07;;;;;;;16.87;9.07;;;10.70;99.90;;;;;;5072249;28;20216;-61
2021/01/28 10:56:38;;;;;;;19.70;8.27;;;10.70;99.90;;;;;;5068144;28;20208;-61
2021/01/28 10:59:38;;;;;;;19.30;8.87;;;10.70;99.90;;;;;;5104440;28;20230;-61
2021/01/28 11:02:55;;;;;;;14.60;8.63;;;10.80;99.90;;;;;;5112464;28;20226;-61
2021/01/28 11:05:58;;;;;;;17.93;9.27;;;10.80;99.90;;;;;;5114149;28;20219;-61
2021/01/28 11:12:19;;;;;;;20.10;9.23;;;10.90;99.90;;;;;;5035827;28;20278;-61
2021/01/28 11:15:00;;;;;;;13.60;8.90;;;10.90;99.90;;;;;;5045842;28;20224;-62
2021/01/28 11:23:16;;;;;;;17.97;8.60;;;11.00;99.90;;;;;;5033729;28;20243;-61
2021/01/28 11:25:44;;;;;;;15.67;8.30;;;11.00;99.90;;;;;;5043326;28;20266;-61
2021/01/28 11:28:13;;;;;;;12.93;8.17;;;11.10;99.90;;;;;;5051312;28;20217;-61
2021/01/28 11:30:51;;;;;;;10.67;8.13;;;11.20;99.90;;;;;;5057150;28;20249;-62
2021/01/28 11:38:37;;;;;;;16.30;7.57;;;11.20;99.90;;;;;;5063095;28;20297;-62
2021/01/28 11:44:20;;;;;;;9.67;7.70;;;11.30;99.90;;;;;;5109434;28;20214;-62
2021/01/28 11:46:48;;;;;;;12.77;7.13;;;11.30;99.90;;;;;;5106776;28;20328;-61
2021/01/28 11:49:43;;;;;;;9.83;6.90;;;11.30;99.90;;;;;;5112694;28;20218;-62
2021/01/28 11:59:10;;;;;;;11.70;6.40;;;11.20;99.90;;;;;;5002659;28;20720;-62
2021/01/28 12:02:41;;;;;;;9.13;5.30;;;11.20;99.90;;;;;;5000225;28;20244;-62
2021/01/28 12:08:31;;;;;;;5.43;4.83;;;11.20;99.90;;;;;;4960864;28;20743;-62
2021/01/28 12:14:13;;;;;;;7.30;4.30;;;11.40;99.90;;;;;;4999590;28;20234;-62
2021/01/28 12:17:37;;;;;;;5.23;4.40;;;11.50;99.90;;;;;;5003938;28;20238;-62
2021/01/28 12:20:57;;;;;;;4.93;4.00;;;11.60;99.90;;;;;;5002327;28;20229;-62
2021/01/28 12:23:39;;;;;;;4.03;3.63;;;11.80;99.90;;;;;;4992506;28;20312;-62
2021/01/28 12:26:43;;;;;;;6.10;3.60;;;11.80;99.90;;;;;;5027731;28;20229;-62
2021/01/28 12:29:53;;;;;;;3.97;3.67;;;11.80;99.90;;;;;;5030405;28;20657;-62
2021/01/28 12:32:24;;;;;;;6.57;4.10;;;11.80;99.90;;;;;;5086731;28;20296;-62
2021/01/28 12:35:19;;;;;;;7.50;3.67;;;11.80;99.90;;;;;;5084768;28;20231;-63
2021/01/28 12:38:30;;;;;;;;;;;;;;;;;;;;;
2021/01/28 12:41:19;;;;;;;6.73;2.83;;;11.70;99.90;;;;;;5082495;28;20650;-62
2021/01/28 12:44:05;;;;;;;4.37;2.83;;;11.70;99.90;;;;;;5059476;28;20223;-63
2021/01/28 12:49:31;;;;;;;5.83;3.83;;;11.70;99.90;;;;;;5066811;28;20225;-63
2021/01/28 12:52:27;;;;;;;3.73;3.40;;;11.60;99.90;;;;;;5074386;28;20219;-62
2021/01/28 12:58:56;;;;;;;4.17;3.70;;;11.60;99.90;;;;;;5067740;28;20234;-63
2021/01/28 13:02:39;;;;;;;4.27;3.07;;;11.60;99.90;;;;;;4977223;28;20696;-62
2021/01/28 13:05:32;;;;;;;4.53;3.00;;;11.60;99.90;;;;;;4996794;28;20587;-63
2021/01/28 13:11:15;;;;;;;9.07;3.73;;;11.60;99.90;;;;;;5009760;28;20321;-63
2021/01/28 13:13:58;;;;;;;8.43;4.77;;;11.60;99.90;;;;;;4992268;28;20312;-62
2021/01/28 13:17:06;;;;;;;12.97;6.47;;;11.60;99.90;;;;;;5005986;28;20702;-63
2021/01/28 13:23:29;;;;;;;10.00;4.57;;;11.50;99.90;;;;;;4943463;28;20227;-62
2021/01/28 13:26:28;;;;;;;12.53;5.10;;;11.40;99.90;;;;;;4904557;28;20288;-63
2021/01/28 13:29:12;;;;;;;10.67;4.70;;;11.40;99.90;;;;;;4988712;28;20218;-62
2021/01/28 13:31:50;;;;;;;9.43;4.67;;;11.40;99.90;;;;;;4981437;28;20269;-63
2021/01/28 13:34:25;;;;;;;9.60;4.33;;;11.30;99.90;;;;;;4990779;28;20225;-63
2021/01/28 13:37:10;;;;;;;10.60;3.80;;;11.30;99.90;;;;;;4988050;28;20223;-62
2021/01/28 13:40:00;;;;;;;12.07;3.77;;;11.20;99.90;;;;;;5004949;28;20715;-63
2021/01/28 13:42:54;;;;;;;12.80;3.80;;;11.20;99.90;;;;;;5071227;28;21582;-62
2021/01/28 13:45:50;;;;;;;10.33;3.33;;;11.20;99.90;;;;;;5088933;28;20221;-63
2021/01/28 13:49:33;;;;;;;6.73;3.00;;;11.20;99.90;;;;;;5076916;28;20226;-63
2021/01/28 13:52:04;;;;;;;12.63;3.10;;;11.20;99.90;;;;;;5072145;28;20268;-63
2021/01/28 14:01:31;;;;;;;11.03;3.20;;;11.20;99.90;;;;;;5072648;28;20215;-63
2021/01/28 14:04:07;;;;;;;11.43;2.63;;;11.20;99.90;;;;;;5074303;28;20776;-63
2021/01/28 14:06:50;;;;;;;12.07;3.00;;;11.20;99.90;;;;;;5088795;28;20289;-63
2021/01/28 14:13:06;;;;;;;11.80;4.13;;;11.30;99.90;;;;;;5072449;28;20230;-63
2021/01/28 14:15:54;;;;;;;12.47;4.43;;;11.30;99.90;;;;;;5066923;28;20211;-63
2021/01/28 14:19:17;;;;;;;11.13;3.90;;;11.30;99.90;;;;;;5051243;28;20222;-63
2021/01/28 14:25:24;;;;;;;12.07;3.90;;;11.40;99.90;;;;;;5081053;28;20226;-63
2021/01/28 14:28:15;;;;;;;10.10;3.60;;;11.50;99.90;;;;;;5088819;28;20222;-63
2021/01/28 14:30:42;;;;;;;13.10;3.50;;;11.50;99.90;;;;;;5089508;28;20211;-63
2021/01/28 14:36:32;;;;;;;11.03;3.33;;;11.60;99.90;;;;;;5065194;28;20227;-63
2021/01/28 14:40:04;;;;;;;9.10;3.10;;;11.60;99.90;;;;;;5076075;28;20296;-63
2021/01/28 14:50:20;;;;;;;15.93;4.03;;;11.50;99.90;;;;;;5045732;28;20227;-63
2021/01/28 14:52:57;;;;;;;11.93;3.37;;;11.50;99.90;;;;;;5090301;28;20249;-63
2021/01/28 14:56:34;;;;;;;14.90;3.70;;;11.50;99.90;;;;;;5053105;28;20771;-63
2021/01/28 14:59:10;;;;;;;15.40;3.83;;;11.50;99.90;;;;;;5071185;28;20277;-63
2021/01/28 15:05:51;;;;;;;12.27;3.97;;;11.50;99.90;;;;;;4982406;28;20226;-63
2021/01/28 15:08:39;;;;;;;15.07;3.43;;;11.50;99.90;;;;;;4994913;28;20250;-63
2021/01/28 15:11:31;;;;;;;12.73;3.53;;;11.40;99.90;;;;;;4994742;28;20783;-63
2021/01/28 15:15:14;;;;;;;19.20;3.77;;;11.40;99.90;;;;;;4985890;28;20230;-63
2021/01/28 15:17:55;;;;;;;24.37;4.07;;;11.40;99.90;;;;;;4955601;29;20694;-63
2021/01/28 15:30:54;;;;;;;10.90;3.80;;;11.40;99.90;;;;;;4885916;29;20225;-63
2021/01/28 15:34:03;;;;;;;18.70;4.10;;;11.40;99.90;;;;;;4902425;29;20273;-63
2021/01/28 15:37:40;;;;;;;20.63;4.50;;;11.40;99.90;;;;;;4899218;29;20223;-63
2021/01/28 15:40:51;;;;;;;17.33;3.80;;;11.30;99.90;;;;;;4911780;29;20273;-62
2021/01/28 15:43:45;;;;;;;;;;;;;;;;;;;;;
2021/01/28 15:47:50;;;;;;;14.63;4.00;;;11.40;99.90;;;;;;4949975;28;20251;-63
2021/01/28 15:50:18;;;;;;;16.93;4.00;;;11.30;99.90;;;;;;4955061;28;20715;-63
2021/01/28 15:52:56;;;;;;;16.70;4.23;;;11.30;99.90;;;;;;4970663;28;20268;-63
2021/01/28 15:55:32;;;;;;;17.17;4.33;;;11.30;99.90;;;;;;4968918;28;20223;-63
2021/01/28 15:58:00;;;;;;;18.67;4.50;;;11.30;99.90;;;;;;4960752;28;20254;-63
2021/01/28 16:00:39;;;;;;;19.77;4.50;;;11.30;99.90;;;;;;4966653;28;20303;-63
2021/01/28 16:03:07;;;;;;;16.53;3.67;;;11.30;99.90;;;;;;4967748;28;20242;-63
2021/01/28 16:09:21;;;;;;;19.43;3.87;;;11.20;99.90;;;;;;4960431;28;20725;-63
2021/01/28 16:12:08;;;;;;;26.27;5.43;;;11.20;99.90;;;;;;5039994;28;20232;-63
2021/01/28 16:14:59;;;;;;;19.93;5.47;;;11.20;99.90;;;;;;5050688;28;20384;-63
2021/01/28 16:17:33;;;;;;;14.67;4.93;;;11.20;99.90;;;;;;5046095;28;20225;-63
2021/01/28 16:20:12;;;;;;;14.97;4.03;;;11.20;99.90;;;;;;5060055;28;20428;-63
2021/01/28 16:22:40;;;;;;;21.00;4.30;;;11.20;99.90;;;;;;5050911;28;20224;-63
2021/01/28 16:25:17;;;;;;;17.93;4.67;;;11.20;99.90;;;;;;5050217;28;20217;-63
2021/01/28 16:27:57;;;;;;;13.60;4.23;;;11.20;99.90;;;;;;5050802;28;20247;-63
2021/01/28 16:30:32;;;;;;;17.97;4.33;;;11.20;99.90;;;;;;5029311;28;20573;-63
2021/01/28 16:33:01;;;;;;;16.37;3.80;;;11.20;99.90;;;;;;5052296;28;20255;-63
2021/01/28 16:38:38;;;;;;;21.63;3.50;;;11.20;99.90;;;;;;5048536;28;20209;-63
2021/01/28 16:41:24;;;;;;;13.30;3.53;;;11.20;99.90;;;;;;5067678;28;20645;-63
2021/01/28 16:44:00;;;;;;;18.63;3.70;;;11.20;99.90;;;;;;5042615;28;20232;-63
2021/01/28 16:46:52;;;;;;;19.10;4.20;;;11.20;99.90;;;;;;5049969;28;20270;-63
2021/01/28 16:49:49;;;;;;;14.13;3.33;;;11.10;99.90;;;;;;5053053;28;20319;-63
2021/01/28 16:52:24;;;;;;;17.53;4.20;;;11.10;99.90;;;;;;5019901;28;20221;-63
2021/01/28 16:55:24;;;;;;;12.57;3.30;;;11.20;99.90;;;;;;5050712;28;20239;-63
2021/01/28 16:57:52;;;;;;;17.97;3.60;;;11.10;99.90;;;;;;5044015;28;20626;-63
2021/01/28 17:00:21;;;;;;;24.63;4.07;;;11.10;99.90;;;;;;5053124;28;20212;-63
2021/01/28 17:02:58;;;;;;;14.50;4.00;;;11.10;99.90;;;;;;5046798;28;20340;-63
2021/01/28 17:05:54;;;;;;;19.73;4.43;;;11.10;99.90;;;;;;5028710;28;20255;-63
2021/01/28 17:08:29;;;;;;;14.50;3.77;;;11.10;99.90;;;;;;5029851;28;20344;-63
2021/01/28 17:10:57;;;;;;;16.77;4.77;;;11.10;99.90;;;;;;5038268;28;20703;-63
2021/01/28 17:16:13;;;;;;;26.37;4.43;;;11.10;99.90;;;;;;5036367;28;20224;-63
2021/01/28 17:18:44;;;;;;;20.83;4.20;;;11.00;99.90;;;;;;5041773;28;20229;-63
2021/01/28 17:21:12;;;;;;;22.80;4.77;;;11.00;99.90;;;;;;5033533;28;20675;-63
2021/01/28 17:23:58;;;;;;;23.20;4.67;;;11.00;99.90;;;;;;5014502;28;20267;-63
2021/01/28 17:26:26;;;;;;;20.67;4.67;;;11.00;99.90;;;;;;5030445;28;20217;-63
2021/01/28 17:29:00;;;;;;;30.10;5.47;;;11.00;99.90;;;;;;5040160;28;20213;-63
2021/01/28 17:31:37;;;;;;;26.17;5.20;;;11.00;99.90;;;;;;5034370;28;20244;-63
2021/01/28 17:34:04;;;;;;;24.93;5.70;;;11.00;99.90;;;;;;5037104;28;20244;-63
2021/01/28 17:36:44;;;;;;;29.47;5.43;;;11.00;99.90;;;;;;5023793;28;20719;-63
2021/01/28 17:39:17;;;;;;;21.70;5.47;;;10.90;99.90;;;;;;5026844;28;20227;-63
2021/01/28 17:42:25;;;;;;;26.37;5.47;;;11.00;99.90;;;;;;5028320;28;20212;-62
2021/01/28 17:45:34;;;;;;;24.10;5.10;;;10.90;99.90;;;;;;5021028;28;20788;-63
2021/01/28 17:55:46;;;;;;;29.30;7.37;;;10.90;99.90;;;;;;5046226;28;20247;-63
2021/01/28 18:20:03;;;;;;;27.23;5.53;;;10.70;99.90;;;;;;5067211;28;20246;-63
2021/01/28 18:26:18;;;;;;;24.10;5.97;;;10.60;99.90;;;;;;5086808;28;20221;-63
2021/01/28 18:33:19;;;;;;;25.97;5.80;;;10.60;99.90;;;;;;5055626;28;20226;-63
2021/01/28 18:39:20;;;;;;;36.90;6.77;;;10.40;99.90;;;;;;5071268;28;20222;-62
2021/01/28 18:46:01;;;;;;;35.13;7.57;;;10.30;99.90;;;;;;5055461;28;20780;-62
2021/01/28 18:48:48;;;;;;;;;;;;;;;;;;;;;
2021/01/28 18:58:07;;;;;;;35.73;7.07;;;10.00;99.90;;;;;;5040909;28;20258;-62
2021/01/28 19:00:38;;;;;;;29.33;7.10;;;10.00;99.90;;;;;;5072588;28;20776;-62
2021/01/28 19:03:22;;;;;;;36.67;8.83;;;10.00;99.90;;;;;;5072429;27;20446;-62
2021/01/28 19:06:42;;;;;;;27.30;7.33;;;10.00;99.90;;;;;;5075126;28;20666;-63
2021/01/28 19:09:13;;;;;;;31.13;7.57;;;10.00;99.90;;;;;;5075513;28;20322;-62
2021/01/28 19:12:06;;;;;;;24.07;6.63;;;10.00;99.90;;;;;;5071257;28;20255;-62
2021/01/28 19:18:10;;;;;;;35.47;7.97;;;9.90;99.90;;;;;;5084438;28;20220;-62
2021/01/28 19:20:38;;;;;;;38.67;7.87;;;9.90;99.90;;;;;;5069095;28;20227;-62
2021/01/28 19:28:39;;;;;;;32.53;7.07;;;9.90;99.90;;;;;;5101617;27;20286;-62
2021/01/28 19:34:44;;;;;;;30.53;6.33;;;9.90;99.90;;;;;;5122048;27;20224;-62
2021/01/28 19:37:30;;;;;;;28.33;6.73;;;9.90;99.90;;;;;;5112057;27;20564;-62
2021/01/28 19:40:17;;;;;;;28.03;6.27;;;9.90;99.90;;;;;;5078676;27;20219;-63
2021/01/28 19:43:13;;;;;;;35.80;7.53;;;9.80;99.90;;;;;;5130209;27;20263;-63
2021/01/28 19:46:23;;;;;;;38.13;8.30;;;9.70;99.90;;;;;;5043510;28;20263;-63
2021/01/28 19:59:23;;;;;;;26.37;7.20;;;9.70;99.90;;;;;;5018177;28;20761;-62
2021/01/28 20:02:00;;;;;;;28.47;7.77;;;9.70;99.90;;;;;;4984257;28;20229;-63
2021/01/28 20:05:27;;;;;;;26.47;7.30;;;9.70;99.90;;;;;;5100650;28;20235;-62
2021/01/28 20:08:27;;;;;;;35.37;8.23;;;9.70;99.90;;;;;;5096072;28;20227;-63
2021/01/28 20:11:20;;;;;;;27.67;8.10;;;9.70;99.90;;;;;;5100223;28;20235;-62
2021/01/28 20:22:21;;;;;;;24.63;7.43;;;9.80;99.90;;;;;;5080456;28;20227;-63
2021/01/28 20:25:29;;;;;;;29.10;7.70;;;9.80;99.90;;;;;;5007968;28;20688;-63
2021/01/28 20:28:15;;;;;;;37.30;8.73;;;9.80;99.90;;;;;;4954348;28;20664;-63
2021/01/28 20:31:29;;;;;;;30.13;8.57;;;9.80;99.90;;;;;;5009252;28;20722;-63
2021/01/28 20:34:04;;;;;;;37.97;9.10;;;9.80;99.90;;;;;;4994310;28;20238;-63
2021/01/28 20:36:32;;;;;;;35.33;9.27;;;9.70;99.90;;;;;;5009549;28;20218;-63
2021/01/28 20:39:30;;;;;;;32.13;9.10;;;9.70;99.90;;;;;;5025174;28;20258;-62
2021/01/28 20:42:33;;;;;;;48.20;10.37;;;9.70;99.90;;;;;;4993792;28;20736;-62
2021/01/28 20:49:05;;;;;;;59.17;14.17;;;9.80;99.90;;;;;;4972093;28;20232;-63
2021/01/28 20:54:46;;;;;;;46.43;11.10;;;9.90;99.90;;;;;;5012078;28;20288;-63
2021/01/28 20:57:47;;;;;;;48.43;12.97;;;9.90;99.90;;;;;;5002712;28;20230;-62
2021/01/28 21:03:21;;;;;;;48.87;12.47;;;10.00;99.90;;;;;;5022474;28;20283;-63
2021/01/28 21:06:02;;;;;;;49.70;11.43;;;10.00;99.90;;;;;;5027052;28;20347;-63
2021/01/28 21:12:01;;;;;;;41.53;10.80;;;10.00;99.90;;;;;;5112255;28;20775;-63
2021/01/28 21:23:39;;;;;;;;;;;;;;;;;;;;;
2021/01/28 21:29:54;;;;;;;35.97;8.63;;;9.90;99.90;;;;;;5013869;28;20703;-62
2021/01/28 21:36:28;;;;;;;32.23;10.83;;;9.90;99.90;;;;;;4910329;28;20239;-63
2021/01/28 21:39:05;;;;;;;;;;;;;;;;;;;;;
2021/01/28 21:42:43;;;;;;;35.83;8.20;;;9.80;99.90;;;;;;4966128;28;20233;-62
2021/01/28 21:45:41;;;;;;;36.23;11.13;;;9.80;99.90;;;;;;4973650;28;20225;-63
2021/01/28 21:48:58;;;;;;;24.00;9.03;;;9.80;99.90;;;;;;4966575;28;20249;-63
2021/01/28 21:54:52;;;;;;;22.53;8.93;;;9.80;99.90;;;;;;4993359;28;20251;-63
2021/01/28 21:57:20;;;;;;;26.93;9.83;;;9.90;99.90;;;;;;5008694;28;20628;-63
2021/01/28 22:00:01;;;;;;;31.63;10.00;;;9.80;99.90;;;;;;5033719;28;20228;-63
2021/01/28 22:02:55;;;;;;;35.50;10.03;;;9.80;99.90;;;;;;5053775;28;20220;-63
2021/01/28 22:05:39;;;;;;;26.60;9.03;;;9.80;99.90;;;;;;5070949;28;20235;-63
2021/01/28 22:08:07;;;;;;;30.53;8.53;;;9.80;99.90;;;;;;5084999;28;20320;-62
2021/01/28 22:10:52;;;;;;;28.27;9.00;;;9.80;99.90;;;;;;5089977;28;20651;-63
2021/01/28 22:13:32;;;;;;;23.50;8.07;;;9.70;99.90;;;;;;5089474;28;20276;-63
2021/01/28 22:16:46;;;;;;;33.43;9.30;;;9.70;99.90;;;;;;5068293;28;20546;-63
2021/01/28 22:19:55;;;;;;;31.70;10.60;;;9.80;99.90;;;;;;5120953;27;20236;-63
2021/01/28 22:22:54;;;;;;;29.43;9.27;;;9.70;99.90;;;;;;5149731;27;20553;-63
2021/01/28 22:25:53;;;;;;;37.90;9.53;;;9.70;99.90;;;;;;5074290;28;20255;-63
2021/01/28 22:32:11;;;;;;;39.90;11.27;;;9.80;99.90;;;;;;5017914;28;20770;-63
2021/01/28 22:35:25;;;;;;;43.37;12.40;;;9.80;99.90;;;;;;5022787;28;20573;-63
2021/01/28 22:38:04;;;;;;;46.47;13.53;;;9.80;99.90;;;;;;5033650;28;20378;-63
2021/01/28 22:40:57;;;;;;;55.90;14.23;;;9.80;99.90;;;;;;5057727;28;20265;-63
2021/01/28 22:43:43;;;;;;;54.70;14.10;;;9.80;99.90;;;;;;5077722;28;20303;-63
2021/01/28 22:49:15;;;;;;;53.47;13.57;;;9.80;99.90;;;;;;5140638;27;20213;-63
2021/01/28 22:51:47;;;;;;;52.57;12.47;;;9.80;99.90;;;;;;5140608;27;20205;-63
2021/01/28 22:57:35;;;;;;;49.47;11.27;;;9.90;99.90;;;;;;5124811;27;20241;-63
2021/01/28 23:03:28;;;;;;;48.97;11.27;;;9.90;99.90;;;;;;5150799;27;20751;-63
2021/01/28 23:06:12;;;;;;;46.17;9.80;;;9.90;99.90;;;;;;5151760;27;20249;-63
2021/01/28 23:11:52;;;;;;;31.73;7.20;;;9.90;99.90;;;;;;5121557;27;20214;-63
2021/01/28 23:14:20;;;;;;;25.83;5.70;;;9.90;99.90;;;;;;5147645;27;20213;-63
2021/01/28 23:17:01;;;;;;;25.17;5.83;;;9.90;99.90;;;;;;5133709;27;20266;-62
2021/01/28 23:22:31;;;;;;;18.53;5.30;;;9.80;99.90;;;;;;5153731;27;20224;-63
2021/01/28 23:25:22;;;;;;;13.23;4.57;;;9.90;99.90;;;;;;5154440;27;20409;-63
2021/01/28 23:31:23;;;;;;;16.57;4.57;;;9.90;99.90;;;;;;5046012;28;20650;-63
2021/01/28 23:34:11;;;;;;;10.60;4.23;;;9.90;99.90;;;;;;5015139;28;20299;-63